Indian Springs, Nevada Weather observations

Data are for observation ending at time listed.
 Day   Time    Ave.   Ave.  Ave.  Vector   Max.   Stn.    Total    Solar   Ave.  
  of    of     Air    Rel.  Wind   Wind    Wind   Baro.  Precip.   Rad.    Soil  
Year   Day     Temp.  Hum.  Speed  Dir.    Gust   Pres.                    Temp. 
2019   (PST)    F      %     mph   deg.    mph     mb.     in.     W/m2     F   
------------------------------------------------------------------------------
 113    0:10   64.5    33    2.7   265      7.1   910.1    0.00       0    71.3
 113    0:20   65.1    32    2.1   266      7.7   910.0    0.00       0    71.1
 113    0:30   64.4    33    1.6   278      5.2   910.1    0.00       0    70.9
 113    0:40   63.3    35    1.9   309      6.6   910.1    0.00       0    70.8
 113    0:50   63.5    34    1.5   337      5.6   910.0    0.00       0    70.6
 113    1:00   63.2    35    1.3    15      3.7   910.0    0.00       0    70.5
 113    1:10   62.4    36    1.0    19      3.4   909.9    0.00       0    70.3
 113    1:20   61.7    37    0.9    25      2.6   909.7    0.00       0    70.2
 113    1:30   60.9    38    1.5   282      3.9   909.6    0.00       0    70.0
 113    1:40   60.2    39    2.2   239      5.6   909.6    0.00       0    69.9
 113    1:50   59.9    39    2.8   246      6.6   909.6    0.00       0    69.7
 113    2:00   61.4    37    3.8   239      8.7   909.6    0.00       0    69.6
 113    2:10   61.8    37    2.9   250      5.0   909.6    0.00       0    69.4
 113    2:20   62.2    36    1.9   263      3.6   909.6    0.00       0    69.3
 113    2:30   61.9    37    1.8   306      4.8   909.6    0.00       0    69.1
 113    2:40   61.1    38    0.3   317      2.3   909.7    0.00       0    69.0
 113    2:50   60.5    39    1.0   292      3.3   909.7    0.00       0    68.9
 113    3:00   59.3    41    1.6   236      2.9   909.8    0.00       0    68.8
 113    3:10   58.8    42    1.3   248      2.6   909.8    0.00       0    68.6
 113    3:20   59.7    40    1.2   239      3.2   909.7    0.00       0    68.5
 113    3:30   58.9    42    0.3   187      1.0   909.7    0.00       0    68.4
 113    3:40   58.6    42    1.9   203      4.6   909.6    0.00       0    68.2
 113    3:50   58.5    43    0.5   253      1.9   909.6    0.00       0    68.1
 113    4:00   58.0    44    1.4   280      2.9   909.6    0.00       0    67.9
 113    4:10   57.0    45    2.0   239      3.1   909.5    0.00       0    67.8
 113    4:20   56.1    47    1.1   235      2.6   909.6    0.00       0    67.7
 113    4:30   56.3    47    1.1   245      4.0   909.5    0.00       0    67.5
 113    4:40   56.5    47    0.8   269      2.6   909.5    0.00       0    67.4
 113    4:50   57.9    44    1.5   248      3.1   909.5    0.00       0    67.3
 113    5:00   57.5    45    0.7   178      2.0   909.7    0.00       3    67.1
 113    5:10   54.8    51    0.6   107      1.8   909.7    0.00       7    67.0
 113    5:20   56.0    48    1.0   282      2.3   909.7    0.00      20    66.9
 113    5:30   57.1    46    0.7   302      3.0   909.8    0.00      51    66.8
 113    5:40   57.3    46    2.0   239      5.4   910.0    0.00      91    66.6
 113    5:50   58.4    44    1.4   278      4.2   910.1    0.00     133    66.5
 113    6:00   60.3    42    0.7   185      2.0   910.3    0.00     172    66.3
 113    6:10   61.8    40    0.6   153      1.6   910.5    0.00     209    66.2
 113    6:20   62.6    39    1.3    41      4.4   910.8    0.00     252    66.0
 113    6:30   63.2    39    0.3   355      1.9   911.0    0.00     290    66.0
 113    6:40   63.7    38    1.2   115      3.4   911.2    0.00     323    65.9
 113    6:50   63.6    38    1.1    63      4.2   911.4    0.00     369    66.0
 113    7:00   65.8    34    0.8   176      2.3   911.5    0.00     401    66.0
 113    7:10   67.0    32    0.9   317      3.6   911.7    0.00     443    66.1
 113    7:20   67.1    31    1.3   293      4.5   911.9    0.00     479    66.2
 113    7:30   67.0    31    2.3   270      6.1   912.0    0.00     518    66.3
 113    7:40   66.7    31    2.1   214      4.3   912.2    0.00     553    66.5
 113    7:50   67.4    30    1.5   246      4.2   912.3    0.00     590    66.7
 113    8:00   67.7    30    2.2   320      8.9   912.5    0.00     631    66.9
 113    8:10   67.6    30    1.9   322      4.5   912.7    0.00     667    67.2
 113    8:20   67.7    30    2.0   247      4.0   912.8    0.00     697    67.5
 113    8:30   67.6    30    2.4   275      6.1   912.9    0.00     732    67.8
 113    8:40   68.7    29    1.3    49      3.3   912.9    0.00     764    68.2
 113    8:50   68.5    29    3.3   309      9.0   913.0    0.00     792    68.6
 113    9:00   68.8    29    2.3   264      5.8   913.1    0.00     821    69.0
 113    9:10   69.4    28    2.2   243      4.5   913.2    0.00     850    69.4
 113    9:20   69.7    28    2.1   238      5.4   913.3    0.00     871    69.8
 113    9:30   70.5    27    1.8   299      5.2   913.3    0.00     896    70.2
 113    9:40   71.3    26    2.1   293      5.9   913.3    0.00     920    70.7
 113    9:50   70.9    26    3.0   286      9.3   913.3    0.00     941    71.2
 113   10:00   71.5    26    2.9   290     12.6   913.2    0.00     961    71.7
 113   10:10   72.6    25    2.1   335      6.3   913.2    0.00     981    72.2
 113   10:20   73.3    24    1.5   360      4.5   913.1    0.00     998    72.8
 113   10:30   74.0    23    2.1    38      5.4   913.1    0.00    1009    73.3
 113   10:40   73.0    23    1.9   264      8.0   913.0    0.00    1020    73.9
 113   10:50   73.7    23    2.5   315      6.0   912.9    0.00    1034    74.4
 113   11:00   74.4    22    3.3    24      9.5   912.9    0.00    1051    74.9
 113   11:10   74.8    22    2.2    21      7.2   912.7    0.00    1058    75.5
 113   11:20   74.7    22    1.9   335      7.7   912.6    0.00    1058    76.0
 113   11:30   74.8    22    3.7   330      8.5   912.5    0.00    1065    76.6
 113   11:40   74.2    22    2.3   278      5.6   912.3    0.00    1065    77.1
 113   11:50   74.9    21    3.0   299      6.2   912.2    0.00    1065    77.6
 113   12:00   75.3    20    1.8   289      4.5   912.1    0.00    1060    78.2
 113   12:10   75.7    20    2.5   338      7.8   912.0    0.00    1058    78.7
 113   12:20   77.0    19    1.7    11      6.3   911.9    0.00    1051    79.2
 113   12:30   77.1    18    2.1   315      6.6   911.8    0.00    1043    79.7
 113   12:40   77.1    19    2.4   321      6.4   911.7    0.00    1017    80.2
 113   12:50   77.5    18    3.1    35      8.5   911.6    0.00    1015    80.7
 113   13:00   77.9    18    2.9    18      9.1   911.4    0.00     989    81.2
 113   13:10   78.2    17    3.6    49      8.1   911.3    0.00    1001    81.7
 113   13:20   77.5    17    4.7    99      9.2   911.1    0.00     962    82.2
 113   13:30   78.8    16    2.4    23      7.1   911.0    0.00     940    82.6
 113   13:40   78.9    16    2.1    61      7.5   911.0    0.00     939    83.0
 113   13:50   78.6    16    3.9    41     13.3   910.9    0.00     814    83.4
 113   14:00   79.2    16    3.5    91      9.8   910.7    0.00      51    83.7
 113   14:10   78.7    16    4.0   102      9.2   910.6    0.00     761    84.1
 113   14:20   78.5    16    2.4    60      9.9   910.4    0.00     787    84.3
 113   14:30   79.3    15    2.4    21      7.2   910.4    0.00     820    84.6
 113   14:40   80.5    14    1.9    16      9.1   910.3    0.00     789    84.7
 113   14:50   80.9    14    3.6    52     11.1   910.2    0.00     756    84.7
 113   15:00   80.5    14    4.3    90      8.1   910.1    0.00     627    84.8
 113   15:10   80.9    14    2.1    55      5.7   910.0    0.00     695    84.8
 113   15:20   80.7    13    3.5    47     10.7   909.9    0.00     663    84.9
 113   15:30   81.1    13    2.3    49      6.4   909.9    0.00     625    85.0
 113   15:40   80.7    13    3.6   288      7.1   909.8    0.00     595    85.1
 113   15:50   81.1    13    1.3   254      3.2   909.7    0.00     554    85.2
 113   16:00   81.2    13    3.0    23      9.1   909.7    0.00     520    85.3
 113   16:10   81.3    13    1.6   250      4.3   909.6    0.00     479    85.4
 113   16:20   82.5    12    1.3    22      5.0   909.4    0.00     441    85.4
 113   16:30   82.1    12    1.7    61      4.9   909.3    0.00     402    85.5
 113   16:40   81.1    12    1.5    65      5.2   909.3    0.00     360    85.4
 113   16:50   80.4    12    2.6    66      9.8   909.1    0.00     204    85.4
 113   17:00   80.2    12    1.6    47      5.4   908.9    0.00      51    85.2
 113   17:10   80.1    12    3.1    53      7.6   908.8    0.00      63    85.1
 113   17:20   80.5    12    1.7   352      6.1   908.7    0.00      53    84.9
 113   17:30   80.0    12    1.6    45      5.0   908.5    0.00      49    84.7
 113   17:40   79.9    12    1.1    48      3.3   908.5    0.00      60    84.4
 113   17:50   79.5    12    2.2    66      5.8   908.4    0.00      39    84.1
 113   18:00   79.1    12    1.6    59      5.4   908.3    0.00      24    83.9
 113   18:10   78.7    13    0.8    64      2.3   908.3    0.00      16    83.6
 113   18:20   77.6    13    1.1    43      3.8   908.2    0.00      10    83.3
 113   18:30   76.9    14    0.6    76      3.1   908.1    0.00       3    83.1
 113   18:40   75.6    15    0.0     0      0.0   908.1    0.00       2    82.8
 113   18:50   74.3    16    0.0     0      0.0   908.0    0.00       0    82.5
 113   19:00   73.3    18    0.4   131      2.3   908.0    0.00       0    82.2
 113   19:10   72.7    17    0.3   181      1.2   908.0    0.00       0    81.9
 113   19:20   72.4    17    0.0   172      0.4   908.0    0.00       0    81.6
 113   19:30   71.9    17    0.0   181      0.7   908.0    0.00       0    81.3
 113   19:40   72.1    16    0.6   189      2.1   908.0    0.00       0    81.0
 113   19:50   71.2    18    0.2   320      1.2   908.0    0.00       0    80.7
 113   20:00   71.7    16    1.0   196      2.0   908.0    0.00       0    80.4
 113   20:10   71.9    17    0.3   192      1.8   908.1    0.00       0    80.1
 113   20:20   70.4    19    0.9   312      4.0   908.1    0.00       0    79.8
 113   20:30   70.2    18    1.1   304      2.6   908.1    0.00       0    79.5
 113   20:40   69.9    19    0.7   292      2.9   908.2    0.00       0    79.2
 113   20:50   68.2    21    0.2   239      1.7   908.2    0.00       0    79.0
 113   21:00   66.1    23    0.2   154      1.0   908.1    0.00       0    78.7
 113   21:10   65.3    24    0.0     0      0.0   908.2    0.00       0    78.4
 113   21:20   66.0    22    0.2   210      1.0   908.1    0.00       0    78.1
 113   21:30   66.4    22    0.0   263      0.7   908.0    0.00       0    77.9
 113   21:40   65.9    23    0.4   192      1.5   908.0    0.00       0    77.6
 113   21:50   64.2    25    0.0     0      0.0   908.0    0.00       0    77.3
 113   22:00   63.5    26    0.1   115      0.9   908.0    0.00       0    77.1
 113   22:10   63.2    26    0.0   167      0.6   908.0    0.00       0    76.8
 113   22:20   63.0    26    0.2    88      1.5   908.0    0.00       0    76.6
 113   22:30   62.0    28    0.0     0      0.0   908.1    0.00       0    76.4
 113   22:40   61.5    27    1.0   176      3.4   908.1    0.00       0    76.1
 113   22:50   61.5    27    0.7   165      1.6   908.2    0.00       0    75.9
 113   23:00   62.3    26    1.2   261      3.1   908.2    0.00       0    75.6
 113   23:10   62.1    27    1.0    65      2.7   908.3    0.00       0    75.4
 113   23:20   60.2    29    0.8   120      3.4   908.4    0.00       0    75.2
 113   23:30   59.4    30    1.5    99      3.1   908.5    0.00       0    74.9
 113   23:40   59.9    28    0.5   150      1.8   908.4    0.00       0    74.7
 113   23:50   62.0    25    0.8   174      2.1   908.3    0.00       0    74.5
 114    0:00   62.9    24    0.2   249      1.1   908.3    0.00       0    74.3

Return to Indian Springs, Nevada graphs page.


Western Regional Climate Center,wrcc@dri.edu